createdAt,value
2022-10-09T00:02:46.868Z,18.98
2022-10-09T00:07:53.728Z,11.30
2022-10-09T00:12:57.726Z,7.97
2022-10-09T00:18:03.126Z,9.82
2022-10-09T00:23:08.164Z,9.55
2022-10-09T00:28:12.460Z,8.88
2022-10-09T00:33:18.365Z,9.68
2022-10-09T00:38:22.449Z,6.22
2022-10-09T00:43:48.719Z,4.63
2022-10-09T00:49:00.600Z,5.25
2022-10-09T00:54:08.736Z,5.13
2022-10-09T00:59:13.506Z,5.05
2022-10-09T01:04:18.947Z,6.00
2022-10-09T01:09:28.944Z,5.22
2022-10-09T01:14:37.732Z,8.38
2022-10-09T01:20:09.358Z,5.33
2022-10-09T01:25:21.041Z,4.75
2022-10-09T01:30:26.468Z,5.95
2022-10-09T01:35:32.349Z,3.38
2022-10-09T01:40:37.429Z,3.67
2022-10-09T01:45:45.380Z,4.68
2022-10-09T01:50:58.233Z,3.67
2022-10-09T01:56:08.737Z,8.65
2022-10-09T02:01:18.016Z,7.88
2022-10-09T02:06:22.708Z,5.88
2022-10-09T02:11:30.950Z,5.78
2022-10-09T02:16:40.267Z,3.97
2022-10-09T02:21:48.019Z,8.30
2022-10-09T02:26:56.272Z,5.05
2022-10-09T02:32:01.781Z,4.28
2022-10-09T02:37:06.144Z,5.35
2022-10-09T02:42:10.152Z,4.13
2022-10-09T02:47:15.626Z,13.05
2022-10-09T02:52:19.623Z,10.50
2022-10-09T02:57:23.734Z,7.03
2022-10-09T03:02:29.191Z,11.52
2022-10-09T03:07:33.374Z,5.43
2022-10-09T03:12:37.345Z,8.43
2022-10-09T03:17:42.753Z,6.28
2022-10-09T03:22:47.040Z,12.68
2022-10-09T03:27:51.399Z,2.47
2022-10-09T03:32:56.728Z,3.85
2022-10-09T03:38:00.615Z,3.30
2022-10-09T03:43:04.640Z,4.43
2022-10-09T03:48:11.704Z,4.72
2022-10-09T03:53:16.775Z,4.78
2022-10-09T03:58:20.789Z,4.47
2022-10-09T04:03:27.282Z,6.82
2022-10-09T04:08:31.327Z,5.13
2022-10-09T04:13:35.410Z,4.20
2022-10-09T04:18:41.026Z,7.30
2022-10-09T04:23:45.166Z,15.45
2022-10-09T04:28:53.912Z,10.20
2022-10-09T04:33:59.400Z,8.97
2022-10-09T04:39:03.496Z,11.57
2022-10-09T04:44:11.399Z,6.43
2022-10-09T04:49:17.416Z,4.72
2022-10-09T04:54:22.057Z,6.32
2022-10-09T04:59:28.444Z,7.18
2022-10-09T05:04:34.222Z,9.80
2022-10-09T05:09:38.502Z,10.23
2022-10-09T05:14:45.027Z,7.93
2022-10-09T05:19:52.672Z,13.45
2022-10-09T05:24:57.286Z,13.23
2022-10-09T05:30:01.582Z,12.75
2022-10-09T05:35:08.267Z,12.20
2022-10-09T05:40:12.699Z,19.05
2022-10-09T05:45:16.800Z,14.95
2022-10-09T05:50:22.776Z,26.02
2022-10-09T05:55:26.861Z,19.80
2022-10-09T06:00:31.648Z,20.30
2022-10-09T06:05:37.456Z,13.00
2022-10-09T06:10:41.739Z,22.08
2022-10-09T06:15:53.601Z,29.25
2022-10-09T06:21:00.723Z,25.77
2022-10-09T06:26:07.204Z,21.00
2022-10-09T06:31:13.656Z,15.10
2022-10-09T06:36:21.588Z,11.73
2022-10-09T06:41:31.909Z,13.95
2022-10-09T06:46:38.558Z,17.00
2022-10-09T06:51:44.138Z,17.20
2022-10-09T06:56:48.240Z,10.73
2022-10-09T07:01:53.156Z,11.07
2022-10-09T07:06:58.604Z,5.43
2022-10-09T07:12:02.632Z,6.13
2022-10-09T07:17:07.290Z,4.15
2022-10-09T07:22:16.693Z,4.20
2022-10-09T07:27:21.117Z,4.85
2022-10-09T07:32:25.241Z,5.70
2022-10-09T07:37:30.931Z,5.57
2022-10-09T07:42:34.942Z,6.43
2022-10-09T07:47:38.933Z,5.65
2022-10-09T07:52:44.590Z,3.47
2022-10-09T07:57:48.635Z,3.28
2022-10-09T08:02:53.255Z,2.95
2022-10-09T08:07:59.307Z,3.58
2022-10-09T08:13:03.489Z,2.30
2022-10-09T08:18:08.527Z,3.25
2022-10-09T08:23:16.593Z,3.55
2022-10-09T08:28:20.753Z,2.67
2022-10-09T08:33:26.068Z,2.78
2022-10-09T08:38:46.685Z,2.53
2022-10-09T08:43:57.617Z,6.75
2022-10-09T08:49:05.258Z,8.32
2022-10-09T08:54:21.065Z,6.72
2022-10-09T08:59:25.186Z,5.22
2022-10-09T09:04:39.624Z,10.02
2022-10-09T09:09:53.948Z,3.45
2022-10-09T09:15:08.884Z,4.07
2022-10-09T09:20:23.871Z,3.00
2022-10-09T09:25:33.390Z,3.60
2022-10-09T09:30:45.284Z,3.50
2022-10-09T09:35:59.566Z,6.13
2022-10-09T09:41:06.410Z,3.10
2022-10-09T09:46:16.234Z,5.70
2022-10-09T09:51:28.454Z,7.97
2022-10-09T09:56:53.619Z,6.65
2022-10-09T10:02:14.285Z,3.85
2022-10-09T10:07:29.642Z,3.60
2022-10-09T10:12:37.761Z,5.82
2022-10-09T10:17:42.611Z,6.13
2022-10-09T10:22:52.054Z,3.80
2022-10-09T10:28:03.242Z,3.92
2022-10-09T10:33:18.206Z,3.15
2022-10-09T10:38:31.021Z,4.95
2022-10-09T10:43:43.649Z,3.22
2022-10-09T10:48:49.894Z,3.22
2022-10-09T10:54:07.032Z,6.88
2022-10-09T10:59:30.537Z,7.20
2022-10-09T11:04:48.042Z,4.10
2022-10-09T11:10:02.424Z,5.57
2022-10-09T11:15:19.693Z,2.55
2022-10-09T11:20:57.993Z,6.47
2022-10-09T11:26:15.623Z,1.98
2022-10-09T11:31:30.152Z,3.80
2022-10-09T11:36:40.031Z,7.03
2022-10-09T11:41:46.911Z,4.28
2022-10-09T11:47:01.965Z,3.78
2022-10-09T11:52:17.188Z,3.45
2022-10-09T11:57:29.494Z,7.93
2022-10-09T12:02:35.412Z,3.33
2022-10-09T12:07:41.304Z,2.25
2022-10-09T12:12:45.280Z,5.40
2022-10-09T12:17:51.319Z,1.65
2022-10-09T12:23:28.119Z,5.80
2022-10-09T12:28:29.672Z,2.60
2022-10-09T12:33:40.705Z,3.90
2022-10-09T12:38:44.945Z,2.35
2022-10-09T12:43:51.491Z,1.63
2022-10-09T12:48:57.286Z,1.60
2022-10-09T12:54:01.686Z,2.97
2022-10-09T12:59:07.379Z,2.38
2022-10-09T13:04:28.064Z,1.77
2022-10-09T13:09:37.652Z,2.88
2022-10-09T13:14:44.210Z,1.70
2022-10-09T13:19:55.039Z,1.60
2022-10-09T13:25:01.296Z,2.40
2022-10-09T13:30:07.612Z,2.55
2022-10-09T13:35:13.141Z,1.60
2022-10-09T13:40:23.462Z,3.45
2022-10-09T13:45:27.816Z,1.70
2022-10-09T13:50:33.251Z,3.65
2022-10-09T13:55:38.107Z,3.67
2022-10-09T14:00:42.147Z,3.40
2022-10-09T14:05:47.757Z,2.83
2022-10-09T14:10:51.898Z,2.33
2022-10-09T14:15:56.353Z,3.83
2022-10-09T14:21:02.461Z,4.75
2022-10-09T14:26:06.986Z,2.60
2022-10-09T14:31:10.960Z,2.30
2022-10-09T14:36:19.529Z,2.97
2022-10-09T14:46:28.671Z,5.15
2022-10-09T14:51:37.034Z,5.38
2022-10-09T15:01:46.202Z,3.60
2022-10-09T15:06:51.738Z,3.33
2022-10-09T15:11:55.927Z,7.05
2022-10-09T15:16:59.894Z,3.42
2022-10-09T15:22:06.026Z,7.13
2022-10-09T15:27:10.039Z,3.92
2022-10-09T15:32:14.140Z,5.18
2022-10-09T15:37:19.576Z,4.97
2022-10-09T15:42:23.566Z,5.18
2022-10-09T15:47:49.919Z,5.28
2022-10-09T15:52:54.886Z,4.30
2022-10-09T15:57:59.089Z,9.93
2022-10-09T16:03:03.273Z,9.23
2022-10-09T16:08:08.966Z,17.10
2022-10-09T16:13:13.430Z,38.42
2022-10-09T16:18:20.484Z,41.33
2022-10-09T16:23:26.190Z,34.03
2022-10-09T16:28:31.257Z,37.65
2022-10-09T16:33:35.366Z,26.45
2022-10-09T16:38:41.174Z,15.95
2022-10-09T16:43:46.265Z,21.98
2022-10-09T16:48:51.280Z,29.38
2022-10-09T16:54:02.978Z,27.42
2022-10-09T16:59:09.002Z,32.30
2022-10-09T17:04:14.918Z,24.40
2022-10-09T17:09:20.720Z,30.33
2022-10-09T17:14:25.619Z,20.20
2022-10-09T17:19:29.752Z,15.57
2022-10-09T17:24:37.535Z,18.33
2022-10-09T17:29:41.558Z,20.10
2022-10-09T17:34:46.231Z,15.98
2022-10-09T17:39:52.482Z,22.17
2022-10-09T17:44:58.087Z,40.83
2022-10-09T17:50:03.337Z,39.03
2022-10-09T17:55:11.284Z,23.35
2022-10-09T18:00:21.533Z,21.85
2022-10-09T18:05:27.426Z,17.38
2022-10-09T18:10:33.995Z,14.00
2022-10-09T18:15:38.846Z,14.93
2022-10-09T18:20:43.381Z,14.88
2022-10-09T18:25:49.891Z,20.40
2022-10-09T18:30:54.114Z,34.75
2022-10-09T18:36:03.994Z,34.33
2022-10-09T18:41:10.868Z,25.02
2022-10-09T18:46:16.828Z,28.33
2022-10-09T18:51:26.434Z,14.93
2022-10-09T18:56:34.499Z,8.70
2022-10-09T19:01:38.849Z,15.57
2022-10-09T19:06:43.613Z,11.95
2022-10-09T19:11:50.042Z,6.82
2022-10-09T19:16:54.460Z,9.30
2022-10-09T19:21:58.712Z,10.88
2022-10-09T19:27:05.206Z,8.80
2022-10-09T19:32:09.450Z,9.40
2022-10-09T19:37:15.738Z,8.65
2022-10-09T19:42:21.374Z,6.70
2022-10-09T19:47:27.539Z,7.40
2022-10-09T19:52:32.902Z,9.18
2022-10-09T19:57:38.726Z,15.13
2022-10-09T20:02:43.072Z,6.82
2022-10-09T20:07:47.743Z,7.90
2022-10-09T20:12:54.589Z,12.07
2022-10-09T20:17:59.280Z,8.73
2022-10-09T20:23:03.588Z,11.27
2022-10-09T20:28:14.190Z,10.32
2022-10-09T20:33:18.469Z,9.95
2022-10-09T20:38:25.721Z,15.15
2022-10-09T20:43:32.023Z,16.88
2022-10-09T20:48:36.428Z,9.35
2022-10-09T20:53:41.267Z,10.02
2022-10-09T20:58:46.760Z,12.60
2022-10-09T21:03:51.455Z,13.32
2022-10-09T21:08:55.674Z,10.23
2022-10-09T21:14:03.939Z,8.85
2022-10-09T21:19:08.743Z,9.48
2022-10-09T21:24:13.044Z,7.18
2022-10-09T21:29:18.466Z,9.20
2022-10-09T21:34:22.547Z,7.25
2022-10-09T21:39:26.769Z,5.03
2022-10-09T21:44:33.405Z,5.28
2022-10-09T21:49:38.509Z,10.07
2022-10-09T21:54:42.707Z,8.02
2022-10-09T21:59:49.193Z,9.57
2022-10-09T22:04:57.200Z,12.18
2022-10-09T22:10:01.373Z,12.68
2022-10-09T22:15:08.017Z,6.22
2022-10-09T22:20:13.179Z,9.00
2022-10-09T22:25:17.658Z,9.95
2022-10-09T22:30:23.052Z,6.57
2022-10-09T22:35:27.752Z,9.98
2022-10-09T22:40:31.694Z,7.45
2022-10-09T22:45:39.900Z,9.98
2022-10-09T22:50:43.935Z,11.13
2022-10-09T22:55:47.928Z,6.35
2022-10-09T23:00:53.821Z,6.32
2022-10-09T23:06:08.480Z,7.88
2022-10-09T23:11:13.961Z,7.30
2022-10-09T23:16:19.349Z,8.30
2022-10-09T23:21:24.765Z,6.95
2022-10-09T23:26:31.378Z,6.68
2022-10-09T23:31:37.390Z,10.07
2022-10-09T23:36:41.475Z,11.38
2022-10-09T23:41:45.431Z,14.05
2022-10-09T23:46:50.833Z,13.27
2022-10-09T23:51:55.073Z,7.68
2022-10-09T23:56:59.153Z,7.50
